Time;durP1;ratioP1;P1;durP2;ratioP2;P2;SDS_P1;SDS_P2;PMS_P1;PMS_P2;Temp;Humidity;BMP_temperature;BMP_pressure;BME280_temperature;BME280_humidity;BME280_pressure;Samples;Min_cycle;Max_cycle;Signal;HPM_P1;HPM_P2
2022/03/14 00:01:06;;;;;;;41.22;25.50;;;3.20;99.90;;;;;;5012637;28;20037;-72
2022/03/14 00:03:42;;;;;;;43.58;24.55;;;3.30;99.90;;;;;;4996494;28;20452;-73
2022/03/14 00:06:10;;;;;;;37.60;23.52;;;3.50;99.90;;;;;;5013666;28;20042;-72
2022/03/14 00:08:40;;;;;;;37.78;22.73;;;3.10;99.90;;;;;;5013698;28;20042;-74
2022/03/14 00:11:08;;;;;;;41.37;24.70;;;3.10;99.90;;;;;;5014276;28;20042;-73
2022/03/14 00:13:37;;;;;;;42.40;24.38;;;3.10;99.90;;;;;;5012424;28;20787;-74
2022/03/14 00:16:05;;;;;;;40.10;24.13;;;3.10;99.90;;;;;;5012370;28;20045;-72
2022/03/14 00:18:32;;;;;;;37.60;23.45;;;3.00;99.90;;;;;;5012308;28;20274;-72
2022/03/14 00:21:00;;;;;;;38.80;23.40;;;2.90;99.90;;;;;;5013814;28;20113;-76
2022/03/14 00:23:28;;;;;;;33.70;21.48;;;2.90;99.90;;;;;;5013171;28;20045;-73
2022/03/14 00:25:56;;;;;;;38.15;22.70;;;2.90;99.90;;;;;;5013152;28;20045;-73
2022/03/14 00:28:23;;;;;;;36.70;21.38;;;3.00;99.90;;;;;;5013042;28;20409;-71
2022/03/14 00:30:50;;;;;;;41.15;22.95;;;3.00;99.90;;;;;;4995423;28;20116;-73
2022/03/14 00:33:17;;;;;;;40.78;22.67;;;3.10;99.90;;;;;;5012664;28;20054;-72
2022/03/14 00:35:45;;;;;;;38.50;23.58;;;3.20;99.90;;;;;;5012791;28;20049;-74
2022/03/14 00:38:15;;;;;;;37.60;23.27;;;3.10;99.90;;;;;;5013800;28;20038;-73
2022/03/14 00:40:43;;;;;;;37.00;22.30;;;3.10;99.90;;;;;;5013417;28;20042;-72
2022/03/14 00:43:10;;;;;;;36.67;22.45;;;3.00;99.90;;;;;;5013503;28;20482;-73
2022/03/14 00:45:37;;;;;;;41.58;23.58;;;2.90;99.90;;;;;;5006442;28;20036;-75
2022/03/14 00:48:05;;;;;;;42.58;24.27;;;2.90;99.90;;;;;;5002987;28;20125;-72
2022/03/14 00:50:32;;;;;;;44.58;27.90;;;2.80;99.90;;;;;;5010897;28;20493;-74
2022/03/14 00:52:59;;;;;;;47.75;28.73;;;2.90;99.90;;;;;;5011450;28;20046;-74
2022/03/14 00:55:27;;;;;;;51.17;29.02;;;2.30;99.90;;;;;;5012521;28;20437;-73
2022/03/14 00:57:54;;;;;;;49.50;30.08;;;2.40;99.90;;;;;;5012576;28;20373;-76
2022/03/14 01:00:21;;;;;;;50.80;27.60;;;2.60;99.90;;;;;;5010334;28;20049;-77
2022/03/14 01:02:50;;;;;;;50.88;27.88;;;2.60;99.90;;;;;;5013256;28;20053;-78
2022/03/14 01:05:17;;;;;;;52.63;27.73;;;2.70;99.90;;;;;;4979626;28;20054;-77
2022/03/14 01:07:45;;;;;;;45.42;27.80;;;2.60;99.90;;;;;;5013478;28;20042;-75
2022/03/14 01:10:15;;;;;;;45.13;27.30;;;2.70;99.90;;;;;;5012898;28;20450;-78
2022/03/14 01:12:42;;;;;;;46.30;27.70;;;2.60;99.90;;;;;;5013511;28;20141;-78
2022/03/14 01:15:10;;;;;;;49.03;26.92;;;2.60;99.90;;;;;;5013028;28;20473;-76
2022/03/14 01:17:38;;;;;;;46.47;27.60;;;2.70;99.90;;;;;;5012224;28;20050;-71
2022/03/14 01:20:07;;;;;;;43.55;26.10;;;2.30;99.90;;;;;;5032560;28;20143;-74
2022/03/14 01:22:35;;;;;;;45.78;26.63;;;2.40;99.90;;;;;;5033095;28;20045;-75
2022/03/14 01:25:04;;;;;;;42.30;24.90;;;2.50;99.90;;;;;;5032554;28;20042;-73
2022/03/14 01:27:31;;;;;;;39.30;24.67;;;2.30;99.90;;;;;;5032613;28;20076;-75
2022/03/14 01:29:59;;;;;;;45.53;24.65;;;2.40;99.90;;;;;;5032508;28;20033;-77
2022/03/14 01:32:26;;;;;;;40.63;25.27;;;2.50;99.90;;;;;;5032559;28;20381;-77
2022/03/14 01:34:53;;;;;;;45.30;24.73;;;2.30;99.90;;;;;;5032443;28;20061;-74
2022/03/14 01:37:20;;;;;;;38.28;25.20;;;2.40;99.90;;;;;;5032314;28;20406;-75
2022/03/14 01:39:48;;;;;;;37.70;23.90;;;2.40;99.90;;;;;;5032171;28;20404;-75
2022/03/14 01:42:19;;;;;;;44.22;25.60;;;2.30;99.90;;;;;;5032600;28;20485;-74
2022/03/14 01:44:47;;;;;;;41.50;23.77;;;2.30;99.90;;;;;;5014882;28;20136;-73
2022/03/14 01:47:15;;;;;;;45.13;24.25;;;2.10;99.90;;;;;;5031870;28;20037;-73
2022/03/14 01:49:44;;;;;;;40.22;24.50;;;2.10;99.90;;;;;;5032183;28;20118;-72
2022/03/14 01:52:13;;;;;;;39.40;23.48;;;2.20;99.90;;;;;;5032144;28;20388;-72
2022/03/14 01:54:41;;;;;;;34.78;23.17;;;2.10;99.90;;;;;;5032156;28;20048;-75
2022/03/14 01:57:09;;;;;;;41.58;23.20;;;2.20;99.90;;;;;;5032120;28;20476;-74
2022/03/14 01:59:37;;;;;;;38.47;22.88;;;2.30;99.90;;;;;;5032011;28;20052;-75
2022/03/14 02:02:05;;;;;;;33.13;20.90;;;2.30;99.90;;;;;;5032008;28;20048;-73
2022/03/14 02:04:33;;;;;;;38.30;21.95;;;2.30;99.90;;;;;;5031908;28;20072;-74
2022/03/14 02:07:00;;;;;;;34.47;21.52;;;2.30;99.90;;;;;;5031611;28;20047;-73
2022/03/14 02:09:27;;;;;;;33.90;21.15;;;2.20;99.90;;;;;;5031586;28;20046;-74
2022/03/14 02:11:57;;;;;;;33.67;19.90;;;2.20;99.90;;;;;;5031741;28;20048;-74
2022/03/14 02:14:25;;;;;;;30.50;19.83;;;2.20;99.90;;;;;;5014275;28;20046;-74
2022/03/14 02:16:53;;;;;;;31.30;19.13;;;2.10;99.90;;;;;;5031359;28;20042;-74
2022/03/14 02:19:20;;;;;;;29.48;17.40;;;2.20;99.90;;;;;;5031359;28;20413;-75
2022/03/14 02:21:48;;;;;;;28.52;16.85;;;2.30;99.90;;;;;;5031684;28;20036;-72
2022/03/14 02:24:15;;;;;;;26.08;16.73;;;2.40;99.90;;;;;;5031516;28;20049;-71
2022/03/14 02:26:43;;;;;;;28.13;17.83;;;2.30;99.90;;;;;;5031739;28;20572;-72
2022/03/14 02:29:14;;;;;;;33.45;18.90;;;2.40;99.90;;;;;;5031067;28;20041;-72
2022/03/14 02:31:43;;;;;;;31.55;20.38;;;2.50;99.90;;;;;;5031640;28;20041;-74
2022/03/14 02:34:10;;;;;;;34.35;21.77;;;2.30;99.90;;;;;;5031679;28;20045;-74
2022/03/14 02:36:38;;;;;;;35.85;22.25;;;2.10;99.90;;;;;;5031706;28;20037;-79
2022/03/14 02:39:08;;;;;;;39.40;22.00;;;1.80;99.90;;;;;;5013864;28;20049;-75
2022/03/14 02:41:36;;;;;;;43.95;23.50;;;1.80;99.90;;;;;;5031511;28;20037;-72
2022/03/14 02:44:08;;;;;;;36.47;22.88;;;1.70;99.90;;;;;;5031376;28;20037;-73
2022/03/14 02:46:37;;;;;;;33.72;20.80;;;1.70;99.90;;;;;;5013720;28;20058;-77
2022/03/14 02:49:06;;;;;;;40.97;22.80;;;1.50;99.90;;;;;;5014110;28;20048;-74
2022/03/14 02:51:34;;;;;;;34.17;20.98;;;1.50;99.90;;;;;;5031370;28;20409;-75
2022/03/14 02:54:04;;;;;;;35.13;21.75;;;1.60;99.90;;;;;;5031447;28;20412;-76
2022/03/14 02:56:37;;;;;;;36.70;22.40;;;1.90;99.90;;;;;;5031402;28;20045;-76
2022/03/14 02:59:06;;;;;;;34.47;19.70;;;2.10;99.90;;;;;;5013568;28;20571;-75
2022/03/14 03:01:37;;;;;;;36.33;20.75;;;2.20;99.90;;;;;;5031329;28;20080;-74
2022/03/14 03:04:05;;;;;;;34.03;19.13;;;2.10;99.90;;;;;;5031229;28;20068;-74
2022/03/14 03:06:32;;;;;;;26.85;17.45;;;1.80;99.90;;;;;;5013504;28;20057;-73
2022/03/14 03:09:03;;;;;;;28.45;17.83;;;1.80;99.90;;;;;;5031302;28;20386;-72
2022/03/14 03:11:32;;;;;;;25.88;17.25;;;2.00;99.90;;;;;;5031192;28;20477;-72
2022/03/14 03:14:01;;;;;;;26.10;16.08;;;1.80;99.90;;;;;;5030918;28;20049;-74
2022/03/14 03:16:28;;;;;;;22.50;14.32;;;1.80;99.90;;;;;;5033533;28;20511;-73
2022/03/14 03:18:56;;;;;;;27.85;15.30;;;1.60;99.90;;;;;;5034749;28;20053;-72
2022/03/14 03:21:24;;;;;;;22.67;15.05;;;1.70;99.90;;;;;;5017541;28;20049;-75
2022/03/14 03:23:51;;;;;;;24.13;15.55;;;1.50;99.90;;;;;;5034735;28;20552;-75
2022/03/14 03:26:19;;;;;;;24.75;16.42;;;1.50;99.90;;;;;;5034878;28;20049;-73
2022/03/14 03:28:46;;;;;;;22.27;14.77;;;1.60;99.90;;;;;;5034807;28;20045;-74
2022/03/14 03:31:21;;;;;;;25.75;16.17;;;1.60;99.90;;;;;;5035002;28;20050;-71
2022/03/14 03:33:52;;;;;;;22.00;14.40;;;1.50;99.90;;;;;;5034832;28;20073;-73
2022/03/14 03:36:19;;;;;;;23.65;14.63;;;1.40;99.90;;;;;;5034777;28;20428;-73
2022/03/14 03:38:47;;;;;;;23.33;14.48;;;1.40;99.90;;;;;;5034442;28;20055;-73
2022/03/14 03:41:14;;;;;;;22.55;14.10;;;1.20;99.90;;;;;;5034912;28;20033;-74
2022/03/14 03:43:42;;;;;;;19.98;13.15;;;1.30;99.90;;;;;;5034588;28;20401;-76
2022/03/14 03:46:09;;;;;;;20.45;13.02;;;1.40;99.90;;;;;;5034461;28;20044;-76
2022/03/14 03:48:36;;;;;;;23.45;13.68;;;1.30;99.90;;;;;;5034537;28;20087;-75
2022/03/14 03:51:04;;;;;;;22.85;13.73;;;1.30;99.90;;;;;;5034663;28;20045;-77
2022/03/14 03:53:31;;;;;;;22.52;14.45;;;1.40;99.90;;;;;;5033895;28;20045;-74
2022/03/14 03:55:59;;;;;;;21.40;13.95;;;1.30;99.90;;;;;;5034336;28;20120;-74
2022/03/14 03:58:26;;;;;;;23.40;15.32;;;1.30;99.90;;;;;;5034200;28;20049;-74
2022/03/14 04:00:53;;;;;;;20.95;14.82;;;1.20;99.90;;;;;;5034442;28;20178;-76
2022/03/14 04:03:21;;;;;;;23.20;14.68;;;0.90;99.90;;;;;;5034146;28;20519;-74
2022/03/14 04:05:49;;;;;;;24.88;15.45;;;0.90;99.90;;;;;;5034548;28;20042;-76
2022/03/14 04:08:17;;;;;;;28.25;17.15;;;0.70;99.90;;;;;;5034229;28;20481;-75
2022/03/14 04:10:53;;;;;;;27.25;15.70;;;0.90;99.90;;;;;;5016629;28;20124;-76
2022/03/14 04:13:23;;;;;;;29.35;17.00;;;1.00;99.90;;;;;;5033821;28;20042;-76
2022/03/14 04:15:52;;;;;;;26.75;16.55;;;1.00;99.90;;;;;;5034061;28;20065;-74
2022/03/14 04:18:24;;;;;;;28.02;16.40;;;1.00;99.90;;;;;;5033894;28;20057;-76
2022/03/14 04:20:53;;;;;;;27.90;17.55;;;0.90;99.90;;;;;;5033815;28;20044;-77
2022/03/14 04:23:20;;;;;;;34.67;17.00;;;0.80;99.90;;;;;;5016460;28;20047;-76
2022/03/14 04:25:47;;;;;;;27.25;16.08;;;0.80;99.90;;;;;;5034169;28;20047;-75
2022/03/14 04:28:15;;;;;;;27.63;15.85;;;0.90;99.90;;;;;;5032303;28;20116;-75
2022/03/14 04:30:42;;;;;;;24.83;16.10;;;0.80;99.90;;;;;;5033641;28;20037;-77
2022/03/14 04:33:10;;;;;;;26.70;17.02;;;0.90;99.90;;;;;;5033753;28;20041;-74
2022/03/14 04:35:38;;;;;;;24.95;16.98;;;1.00;99.90;;;;;;5033720;28;20065;-74
2022/03/14 04:38:08;;;;;;;23.80;15.98;;;0.90;99.90;;;;;;5033867;28;20370;-75
2022/03/14 04:40:36;;;;;;;26.40;16.13;;;0.90;99.90;;;;;;5033390;28;20195;-75
2022/03/14 04:43:04;;;;;;;26.33;16.48;;;0.90;99.90;;;;;;5033768;28;20069;-74
2022/03/14 04:45:32;;;;;;;25.08;16.15;;;1.00;99.90;;;;;;5033546;28;20042;-73
2022/03/14 04:48:00;;;;;;;26.80;16.23;;;1.00;99.90;;;;;;5033274;28;20045;-74
2022/03/14 04:50:28;;;;;;;27.45;14.52;;;1.00;99.90;;;;;;5033437;28;20048;-75
2022/03/14 04:52:58;;;;;;;;;;;1.00;99.90;;;;;;5033866;28;20045;-75
2022/03/14 04:55:26;;;;;;;24.63;14.75;;;1.00;99.90;;;;;;5033686;28;20323;-75
2022/03/14 04:57:53;;;;;;;24.17;13.68;;;0.90;99.90;;;;;;5015287;28;20060;-74
2022/03/14 05:00:22;;;;;;;23.85;14.55;;;0.90;99.90;;;;;;5033277;28;20046;-74
2022/03/14 05:02:50;;;;;;;20.70;13.75;;;1.00;99.90;;;;;;5033310;28;20129;-74
2022/03/14 05:05:17;;;;;;;27.08;14.75;;;1.10;99.90;;;;;;5032993;28;20409;-73
2022/03/14 05:07:45;;;;;;;21.60;14.63;;;1.10;99.90;;;;;;5033321;28;20045;-76
2022/03/14 05:10:12;;;;;;;26.75;15.93;;;1.10;99.90;;;;;;5033009;28;20652;-76
2022/03/14 05:12:39;;;;;;;24.98;15.18;;;1.20;99.90;;;;;;5033212;28;20466;-75
2022/03/14 05:15:07;;;;;;;22.83;15.90;;;1.30;99.90;;;;;;5032904;28;20075;-74
2022/03/14 05:17:34;;;;;;;25.05;15.40;;;1.20;99.90;;;;;;5015281;28;20079;-74
2022/03/14 05:20:03;;;;;;;21.70;14.18;;;1.30;99.90;;;;;;5032506;28;20045;-73
2022/03/14 05:22:30;;;;;;;23.15;15.50;;;1.00;99.90;;;;;;5033121;28;20408;-75
2022/03/14 05:24:57;;;;;;;27.90;15.50;;;1.10;99.90;;;;;;5032445;28;20124;-75
2022/03/14 05:27:25;;;;;;;23.60;15.30;;;1.20;99.90;;;;;;5032889;28;20041;-77
2022/03/14 05:29:52;;;;;;;24.90;15.32;;;1.00;99.90;;;;;;5032280;28;20408;-76
2022/03/14 05:32:19;;;;;;;24.75;15.05;;;1.00;99.90;;;;;;5032643;28;20048;-73
2022/03/14 05:34:47;;;;;;;29.70;16.52;;;0.90;99.90;;;;;;5032013;28;20092;-74
2022/03/14 05:37:15;;;;;;;23.75;16.13;;;1.00;99.90;;;;;;5015222;28;20049;-73
2022/03/14 05:39:43;;;;;;;29.63;16.55;;;0.80;99.90;;;;;;5031917;28;20497;-74
2022/03/14 05:42:10;;;;;;;26.38;16.90;;;0.90;99.90;;;;;;5032143;28;20055;-73
2022/03/14 05:44:37;;;;;;;27.88;16.27;;;1.00;99.90;;;;;;5032340;28;20421;-76
2022/03/14 05:47:05;;;;;;;26.77;16.77;;;1.10;99.90;;;;;;5014986;28;20039;-71
2022/03/14 05:49:32;;;;;;;28.33;17.30;;;1.30;99.90;;;;;;5031962;28;20046;-77
2022/03/14 05:51:59;;;;;;;34.85;18.42;;;1.30;99.90;;;;;;5031676;28;20049;-72
2022/03/14 05:54:27;;;;;;;33.22;18.85;;;1.50;99.90;;;;;;5031980;28;20111;-77
2022/03/14 05:56:54;;;;;;;29.70;19.38;;;1.40;99.90;;;;;;5032143;28;20048;-75
2022/03/14 05:59:21;;;;;;;31.05;19.10;;;1.40;99.90;;;;;;5013190;28;20041;-74
2022/03/14 06:01:50;;;;;;;34.33;18.70;;;1.00;99.90;;;;;;5030084;28;20079;-74
2022/03/14 06:04:17;;;;;;;38.85;21.08;;;1.30;99.90;;;;;;5031915;28;20076;-74
2022/03/14 06:06:45;;;;;;;31.90;19.85;;;1.50;99.90;;;;;;5031949;28;20052;-75
2022/03/14 06:09:12;;;;;;;37.75;20.33;;;1.60;99.90;;;;;;5031705;28;20401;-74
2022/03/14 06:11:42;;;;;;;31.50;18.35;;;1.60;99.90;;;;;;5031623;28;20045;-76
2022/03/14 06:14:11;;;;;;;35.45;19.70;;;1.50;99.90;;;;;;5031477;28;20048;-76
2022/03/14 06:16:38;;;;;;;34.47;16.73;;;1.40;99.90;;;;;;5031400;28;20033;-75
2022/03/14 06:19:06;;;;;;;28.20;17.40;;;1.10;99.90;;;;;;5031160;28;20502;-76
2022/03/14 06:21:34;;;;;;;30.33;17.33;;;1.40;99.90;;;;;;5031844;28;20042;-76
2022/03/14 06:24:02;;;;;;;29.20;17.48;;;1.40;99.90;;;;;;5031254;28;20448;-75
2022/03/14 06:26:29;;;;;;;32.35;17.30;;;1.60;99.90;;;;;;5031154;28;20117;-75
2022/03/14 06:28:57;;;;;;;36.97;17.80;;;1.70;99.90;;;;;;5031369;28;20111;-75
2022/03/14 06:31:24;;;;;;;31.13;18.60;;;1.80;99.90;;;;;;5031248;28;20037;-73
2022/03/14 06:33:52;;;;;;;31.38;18.00;;;1.50;99.90;;;;;;5013445;28;20061;-77
2022/03/14 06:36:19;;;;;;;34.10;17.83;;;1.70;99.90;;;;;;5031292;28;20051;-75
2022/03/14 06:38:46;;;;;;;32.72;17.75;;;2.00;99.90;;;;;;5013659;28;20060;-76
2022/03/14 06:41:14;;;;;;;33.25;19.08;;;2.10;99.90;;;;;;5031105;28;20120;-76
2022/03/14 06:43:41;;;;;;;31.23;17.73;;;2.20;99.80;;;;;;5031364;28;20378;-76
2022/03/14 06:46:09;;;;;;;39.28;18.33;;;2.30;99.80;;;;;;5031142;28;20114;-75
2022/03/14 06:48:40;;;;;;;28.65;17.30;;;2.40;99.30;;;;;;5013981;28;20485;-76
2022/03/14 06:51:07;;;;;;;28.33;18.23;;;2.60;99.50;;;;;;5013206;28;20374;-75
2022/03/14 06:53:34;;;;;;;28.00;18.13;;;2.40;99.90;;;;;;5030882;28;20045;-77
2022/03/14 06:56:02;;;;;;;32.25;19.00;;;2.60;99.90;;;;;;5030879;28;20047;-77
2022/03/14 06:58:30;;;;;;;28.33;17.90;;;2.50;99.90;;;;;;5031483;28;20404;-75
2022/03/14 07:01:02;;;;;;;30.25;18.50;;;2.80;99.90;;;;;;5031248;28;20065;-78
2022/03/14 07:03:30;;;;;;;31.65;18.70;;;2.80;99.90;;;;;;5031113;28;20041;-75
2022/03/14 07:05:57;;;;;;;27.52;17.95;;;2.60;99.90;;;;;;5030853;28;20392;-72
2022/03/14 07:08:25;;;;;;;29.65;17.55;;;2.70;99.90;;;;;;5030868;28;20052;-73
2022/03/14 07:10:54;;;;;;;25.83;18.33;;;2.80;99.70;;;;;;5030438;28;20045;-74
2022/03/14 07:13:21;;;;;;;498.15;243.10;;;3.20;99.90;;;;;;5031037;28;20124;-73
2022/03/14 07:15:48;;;;;;;148.15;76.25;;;3.40;99.90;;;;;;5013248;28;20060;-73
2022/03/14 07:18:15;;;;;;;75.05;44.05;;;3.70;99.90;;;;;;5030686;28;20053;-75
2022/03/14 07:20:43;;;;;;;49.10;29.60;;;3.90;99.90;;;;;;5030807;28;20053;-72
2022/03/14 07:23:11;;;;;;;27.27;19.83;;;4.10;99.00;;;;;;5030532;28;20042;-74
2022/03/14 07:25:38;;;;;;;32.42;19.33;;;3.50;96.80;;;;;;5024108;28;20050;-74
2022/03/14 07:28:08;;;;;;;31.90;18.88;;;3.20;97.40;;;;;;5022392;28;20037;-75
2022/03/14 07:30:36;;;;;;;30.70;18.63;;;3.20;97.40;;;;;;5010673;28;20415;-74
2022/03/14 07:33:04;;;;;;;34.13;19.00;;;3.30;97.00;;;;;;5020685;28;20489;-72
2022/03/14 07:35:31;;;;;;;30.40;18.50;;;3.10;97.20;;;;;;5019087;28;20045;-71
2022/03/14 07:37:58;;;;;;;28.73;17.17;;;3.20;96.70;;;;;;5009684;28;20134;-71
2022/03/14 07:40:26;;;;;;;33.17;19.00;;;3.20;96.10;;;;;;5023643;28;20086;-72
2022/03/14 07:42:56;;;;;;;28.75;17.98;;;3.00;96.30;;;;;;5011438;28;20053;-71
2022/03/14 07:45:24;;;;;;;34.55;18.67;;;3.20;96.10;;;;;;5030155;28;20480;-71
2022/03/14 07:47:54;;;;;;;31.98;18.00;;;3.30;95.20;;;;;;5030151;28;20041;-70
2022/03/14 07:50:23;;;;;;;30.40;18.23;;;3.50;95.40;;;;;;5012502;28;20056;-70
2022/03/14 07:52:51;;;;;;;37.03;19.98;;;3.60;94.90;;;;;;5029866;28;20034;-73
2022/03/14 07:55:18;;;;;;;23.60;17.38;;;3.70;94.60;;;;;;5030141;28;20401;-71
2022/03/14 07:57:46;;;;;;;29.67;18.67;;;3.80;93.50;;;;;;5030486;28;20121;-71
2022/03/14 08:00:16;;;;;;;28.55;17.85;;;4.00;92.50;;;;;;5029854;28;20405;-71
2022/03/14 08:02:43;;;;;;;25.15;17.25;;;4.00;91.70;;;;;;5032910;28;20044;-71
2022/03/14 08:05:16;;;;;;;34.85;19.67;;;4.20;91.50;;;;;;5033931;28;20042;-71
2022/03/14 08:07:45;;;;;;;30.98;18.70;;;4.20;90.70;;;;;;5033454;28;20519;-70
2022/03/14 08:10:17;;;;;;;27.02;17.30;;;4.50;90.50;;;;;;5033364;28;20114;-71
2022/03/14 08:12:54;;;;;;;30.00;17.73;;;4.50;89.40;;;;;;5033808;28;20053;-71
2022/03/14 08:15:25;;;;;;;31.42;18.85;;;4.70;88.90;;;;;;5033701;28;20507;-72
2022/03/14 08:17:55;;;;;;;29.77;18.83;;;4.70;87.10;;;;;;5033147;28;20049;-70
2022/03/14 08:20:25;;;;;;;26.17;18.63;;;4.80;87.80;;;;;;5033022;28;20041;-70
2022/03/14 08:22:57;;;;;;;30.02;18.85;;;5.00;86.30;;;;;;5033148;28;20038;-70
2022/03/14 08:25:26;;;;;;;31.13;17.67;;;5.30;85.40;;;;;;5033292;28;20046;-70
2022/03/14 08:27:53;;;;;;;26.15;17.48;;;5.40;82.70;;;;;;5033578;28;20409;-70
2022/03/14 08:30:25;;;;;;;29.23;18.85;;;5.20;83.40;;;;;;5015223;28;20472;-68
2022/03/14 08:32:55;;;;;;;28.17;18.25;;;5.10;80.30;;;;;;5033054;28;20584;-73
2022/03/14 08:35:24;;;;;;;31.92;18.35;;;5.20;78.60;;;;;;5033118;28;20060;-69
2022/03/14 08:37:53;;;;;;;26.42;16.63;;;5.40;77.20;;;;;;5032562;28;20037;-70
2022/03/14 08:40:23;;;;;;;24.52;16.35;;;5.80;76.20;;;;;;5032638;28;20045;-70
2022/03/14 08:42:52;;;;;;;26.15;18.42;;;5.80;71.50;;;;;;5033301;28;20118;-71
2022/03/14 08:45:20;;;;;;;35.92;22.92;;;5.90;71.30;;;;;;5033098;28;20042;-75
2022/03/14 08:47:47;;;;;;;34.00;22.30;;;6.00;72.00;;;;;;5015771;28;20050;-72
2022/03/14 08:50:16;;;;;;;24.85;15.90;;;6.40;72.10;;;;;;5012517;28;20041;-69
2022/03/14 08:52:45;;;;;;;24.58;15.07;;;6.40;65.40;;;;;;5013117;28;20046;-69
2022/03/14 08:55:14;;;;;;;18.85;13.23;;;6.20;64.60;;;;;;5012849;28;20046;-71
2022/03/14 08:57:43;;;;;;;21.50;13.20;;;6.30;63.50;;;;;;4995454;28;20046;-70
2022/03/14 09:00:11;;;;;;;23.20;13.85;;;6.30;61.80;;;;;;5012696;28;20038;-71
2022/03/14 09:02:41;;;;;;;17.70;12.68;;;6.50;61.70;;;;;;4993385;28;20046;-72
2022/03/14 09:05:08;;;;;;;17.65;13.02;;;6.70;60.20;;;;;;5014600;28;20051;-72
2022/03/14 09:07:36;;;;;;;19.13;13.27;;;6.80;61.10;;;;;;5032834;28;20042;-72
2022/03/14 09:10:07;;;;;;;21.88;13.30;;;6.80;59.60;;;;;;5032211;28;20068;-73
2022/03/14 09:12:35;;;;;;;23.42;12.90;;;7.20;60.20;;;;;;5014639;28;20041;-70
2022/03/14 09:15:03;;;;;;;19.35;12.05;;;7.40;58.60;;;;;;5014660;28;20042;-71
2022/03/14 09:17:32;;;;;;;18.50;11.25;;;7.50;57.50;;;;;;5032227;28;20369;-74
2022/03/14 09:20:01;;;;;;;19.95;11.85;;;7.60;57.60;;;;;;5031600;28;20124;-74
2022/03/14 09:22:29;;;;;;;17.88;11.27;;;7.80;57.30;;;;;;5014712;28;20400;-76
2022/03/14 09:24:57;;;;;;;19.85;12.77;;;7.90;55.30;;;;;;5014660;28;20574;-77
2022/03/14 09:27:25;;;;;;;17.17;11.35;;;8.20;56.70;;;;;;5032636;28;20037;-72
2022/03/14 09:29:54;;;;;;;15.73;10.93;;;8.50;55.50;;;;;;5032086;28;20481;-75
2022/03/14 09:32:21;;;;;;;14.98;9.63;;;8.70;55.20;;;;;;5010732;28;20041;-73
2022/03/14 09:34:50;;;;;;;12.43;8.52;;;8.40;52.80;;;;;;5031795;28;20045;-76
2022/03/14 09:37:17;;;;;;;11.43;7.95;;;8.50;52.50;;;;;;5032291;28;20121;-74
2022/03/14 09:39:44;;;;;;;13.32;8.55;;;8.50;50.30;;;;;;5013616;28;20581;-76
2022/03/14 09:42:12;;;;;;;12.23;8.98;;;8.70;51.70;;;;;;5031958;28;20045;-73
2022/03/14 09:44:42;;;;;;;15.10;8.52;;;8.90;53.10;;;;;;5031692;28;20153;-73
2022/03/14 09:47:11;;;;;;;11.82;8.43;;;8.90;50.40;;;;;;5003666;28;20057;-71
2022/03/14 09:49:43;;;;;;;15.10;9.85;;;9.20;51.20;;;;;;5011747;28;20049;-72
2022/03/14 09:52:11;;;;;;;21.15;9.45;;;9.40;52.00;;;;;;5011680;28;20046;-72
2022/03/14 09:54:39;;;;;;;14.57;8.95;;;9.50;51.30;;;;;;5012124;28;20042;-79
2022/03/14 09:57:06;;;;;;;11.50;8.43;;;9.00;52.00;;;;;;5012535;28;20045;-73
2022/03/14 09:59:38;;;;;;;13.60;8.32;;;9.50;51.20;;;;;;5011931;28;20056;-72
2022/03/14 10:02:07;;;;;;;13.35;8.77;;;9.60;49.70;;;;;;5011096;28;20402;-74
2022/03/14 10:04:35;;;;;;;15.10;9.23;;;9.90;50.00;;;;;;5012015;28;20046;-74
2022/03/14 10:07:03;;;;;;;15.05;10.25;;;10.20;51.90;;;;;;5012113;28;20042;-72
2022/03/14 10:09:30;;;;;;;14.30;8.85;;;10.00;49.80;;;;;;5011336;28;20666;-72
2022/03/14 10:11:57;;;;;;;13.77;9.50;;;9.70;50.30;;;;;;5011839;28;20034;-71
2022/03/14 10:14:24;;;;;;;14.48;8.57;;;10.00;50.80;;;;;;5011331;28;20034;-72
2022/03/14 10:16:56;;;;;;;12.02;8.05;;;10.40;49.80;;;;;;5011677;28;20129;-75
2022/03/14 10:19:31;;;;;;;18.13;8.77;;;10.40;48.80;;;;;;4993899;28;20374;-73
2022/03/14 10:22:13;;;;;;;11.82;8.05;;;10.20;47.80;;;;;;5011478;28;20050;-75
2022/03/14 10:24:43;;;;;;;11.68;7.82;;;10.30;48.30;;;;;;5010424;28;20432;-73
2022/03/14 10:27:12;;;;;;;28.73;17.88;;;10.70;48.40;;;;;;5011763;28;20046;-74
2022/03/14 10:29:42;;;;;;;15.25;10.20;;;11.10;48.40;;;;;;5011052;28;20185;-76
2022/03/14 10:32:30;;;;;;;25.05;13.80;;;10.50;46.80;;;;;;5011104;28;20048;-73
2022/03/14 10:35:01;;;;;;;11.40;7.82;;;10.90;47.40;;;;;;5011469;28;20480;-75
2022/03/14 10:37:29;;;;;;;14.45;7.40;;;10.70;46.50;;;;;;5011596;28;20042;-75
2022/03/14 10:40:10;;;;;;;10.50;6.43;;;11.00;45.50;;;;;;5019861;28;20426;-73
2022/03/14 10:42:42;;;;;;;10.95;7.47;;;10.70;45.70;;;;;;5031669;28;20082;-74
2022/03/14 10:45:18;;;;;;;10.75;7.18;;;10.70;45.30;;;;;;5030273;28;20068;-74
2022/03/14 10:47:54;;;;;;;14.40;7.25;;;11.10;46.80;;;;;;5015653;28;20045;-71
2022/03/14 10:50:30;;;;;;;11.80;6.72;;;11.10;44.90;;;;;;5010660;28;20046;-72
2022/03/14 10:53:20;;;;;;;10.68;7.00;;;11.00;45.10;;;;;;5011154;28;20044;-73
2022/03/14 10:55:56;;;;;;;13.18;7.53;;;11.40;44.50;;;;;;4998841;28;20085;-73
2022/03/14 10:58:28;;;;;;;9.93;6.40;;;11.80;44.30;;;;;;5011047;28;20494;-74
2022/03/14 11:00:57;;;;;;;11.68;6.72;;;12.00;42.90;;;;;;4992280;28;20601;-71
2022/03/14 11:03:34;;;;;;;10.15;6.63;;;11.90;42.70;;;;;;5010177;28;20066;-75
2022/03/14 11:06:08;;;;;;;10.25;6.43;;;12.20;43.20;;;;;;4993599;28;20463;-72
2022/03/14 11:08:42;;;;;;;9.23;5.38;;;12.40;42.00;;;;;;5010480;28;20085;-76
2022/03/14 11:11:14;;;;;;;9.52;6.65;;;12.20;42.10;;;;;;5009442;28;20042;-76
2022/03/14 11:13:43;;;;;;;9.50;5.97;;;12.30;41.10;;;;;;4993282;28;20050;-75
2022/03/14 11:16:40;;;;;;;10.35;6.25;;;12.40;41.30;;;;;;5010438;28;20046;-76
2022/03/14 11:19:11;;;;;;;7.72;5.30;;;12.60;40.80;;;;;;4990262;28;20069;-72
2022/03/14 11:21:38;;;;;;;8.40;6.13;;;12.30;39.90;;;;;;5010715;28;20540;-73
2022/03/14 11:24:06;;;;;;;11.40;5.90;;;12.70;39.20;;;;;;4992854;28;20405;-73
2022/03/14 11:26:36;;;;;;;10.45;6.20;;;12.60;39.00;;;;;;4993215;28;20563;-70
2022/03/14 11:29:04;;;;;;;9.27;6.17;;;12.70;38.80;;;;;;5010382;28;20125;-73
2022/03/14 11:31:32;;;;;;;11.23;5.80;;;12.70;39.40;;;;;;4976432;28;20288;-73
2022/03/14 11:34:00;;;;;;;12.75;5.80;;;13.00;38.40;;;;;;5010349;28;20458;-77
2022/03/14 11:36:27;;;;;;;11.60;5.93;;;13.20;38.30;;;;;;5011848;28;20044;-74
2022/03/14 11:38:55;;;;;;;9.30;6.13;;;13.20;38.20;;;;;;4995947;28;20034;-73
2022/03/14 11:41:22;;;;;;;7.78;5.72;;;13.30;38.10;;;;;;5033462;28;20042;-73
2022/03/14 11:43:51;;;;;;;9.15;5.80;;;13.50;38.30;;;;;;5033400;28;20727;-74
2022/03/14 11:46:37;;;;;;;11.48;6.47;;;13.60;38.10;;;;;;5027479;28;20070;-75
2022/03/14 11:49:15;;;;;;;12.93;6.30;;;13.60;38.70;;;;;;4996553;28;20052;-73
2022/03/14 11:51:44;;;;;;;10.50;5.88;;;13.60;38.10;;;;;;5014289;28;20045;-72
2022/03/14 11:54:13;;;;;;;9.65;7.13;;;13.80;40.10;;;;;;5013895;28;20046;-72
2022/03/14 11:56:57;;;;;;;10.73;6.10;;;14.20;39.00;;;;;;5014193;28;20045;-73
2022/03/14 11:59:32;;;;;;;11.13;6.93;;;14.00;38.00;;;;;;5013791;28;20068;-71
2022/03/14 12:02:01;;;;;;;13.82;6.55;;;14.30;38.20;;;;;;5013836;28;20133;-76
2022/03/14 12:04:30;;;;;;;13.98;7.53;;;14.50;38.20;;;;;;5013738;28;20037;-72
2022/03/14 12:06:58;;;;;;;10.20;6.53;;;15.10;38.60;;;;;;4996507;28;20460;-72
2022/03/14 12:09:26;;;;;;;9.98;6.30;;;15.30;37.60;;;;;;4996030;28;20544;-72
2022/03/14 12:11:54;;;;;;;9.05;5.72;;;14.90;37.80;;;;;;5014052;28;20077;-72
2022/03/14 12:14:43;;;;;;;12.07;6.70;;;15.40;37.60;;;;;;5013595;28;20458;-76
2022/03/14 12:17:13;;;;;;;16.67;7.25;;;15.30;36.90;;;;;;5014074;28;20052;-73
2022/03/14 12:19:42;;;;;;;;;;;15.60;37.30;;;;;;5014060;28;20084;-72
2022/03/14 12:22:35;;;;;;;13.40;6.18;;;15.20;36.50;;;;;;5013434;28;20339;-75
2022/03/14 12:25:04;;;;;;;9.98;7.30;;;15.50;37.10;;;;;;4995374;28;20038;-71
2022/03/14 12:27:40;;;;;;;14.25;7.05;;;16.30;37.20;;;;;;5013670;28;20042;-71
2022/03/14 12:30:16;;;;;;;12.10;6.95;;;16.40;36.10;;;;;;5013210;28;20068;-75
2022/03/14 12:32:49;;;;;;;11.38;7.05;;;17.20;36.50;;;;;;5013171;28;20046;-72
2022/03/14 12:35:17;;;;;;;13.15;7.45;;;17.50;36.30;;;;;;5013350;28;20046;-73
2022/03/14 12:37:44;;;;;;;10.35;6.32;;;17.30;35.80;;;;;;4979761;28;20046;-73
2022/03/14 12:40:37;;;;;;;12.30;7.22;;;17.10;35.30;;;;;;5003499;28;20053;-70
2022/03/14 12:43:12;;;;;;;14.90;7.28;;;18.00;35.90;;;;;;5033144;28;20125;-74
2022/03/14 12:45:42;;;;;;;11.15;7.45;;;18.20;34.60;;;;;;5032848;28;20688;-79
2022/03/14 12:48:16;;;;;;;12.48;7.90;;;18.60;34.10;;;;;;5013002;28;20038;-75